sensor_id;sensor_type;location;lat;lon;timestamp;pressure;altitude;pressure_sealevel;temperature;humidity
28312;BME280;15572;48.810;9.148;2023-06-10T00:04:49;97703.25;;;16.27;98.19
28312;BME280;15572;48.810;9.148;2023-06-10T00:09:46;97710.31;;;16.40;98.41
28312;BME280;15572;48.810;9.148;2023-06-10T00:14:44;97703.13;;;16.34;100.00
28312;BME280;15572;48.810;9.148;2023-06-10T00:19:40;97706.47;;;16.24;100.00
28312;BME280;15572;48.810;9.148;2023-06-10T00:24:37;97698.16;;;16.19;100.00
28312;BME280;15572;48.810;9.148;2023-06-10T00:29:34;97708.94;;;15.97;100.00
28312;BME280;15572;48.810;9.148;2023-06-10T00:34:32;97699.38;;;15.83;100.00
28312;BME280;15572;48.810;9.148;2023-06-10T00:39:28;97705.44;;;15.85;100.00
28312;BME280;15572;48.810;9.148;2023-06-10T00:44:25;97698.69;;;15.76;100.00
28312;BME280;15572;48.810;9.148;2023-06-10T00:49:21;97708.22;;;15.62;100.00
28312;BME280;15572;48.810;9.148;2023-06-10T00:54:19;97698.34;;;15.49;100.00
28312;BME280;15572;48.810;9.148;2023-06-10T00:59:16;97706.78;;;15.36;100.00
28312;BME280;15572;48.810;9.148;2023-06-10T01:04:12;97703.47;;;15.23;100.00
28312;BME280;15572;48.810;9.148;2023-06-10T01:09:14;97701.84;;;15.22;100.00
28312;BME280;15572;48.810;9.148;2023-06-10T01:14:16;97697.91;;;15.17;100.00
28312;BME280;15572;48.810;9.148;2023-06-10T01:19:13;97697.22;;;15.10;100.00
28312;BME280;15572;48.810;9.148;2023-06-10T01:24:14;97704.66;;;15.03;100.00
28312;BME280;15572;48.810;9.148;2023-06-10T01:29:18;97699.09;;;14.98;100.00
28312;BME280;15572;48.810;9.148;2023-06-10T01:34:17;97693.41;;;15.00;100.00
28312;BME280;15572;48.810;9.148;2023-06-10T01:39:17;97703.47;;;14.99;100.00
28312;BME280;15572;48.810;9.148;2023-06-10T01:44:17;97696.25;;;14.93;100.00
28312;BME280;15572;48.810;9.148;2023-06-10T01:49:14;97706.66;;;14.96;100.00
28312;BME280;15572;48.810;9.148;2023-06-10T01:54:10;97710.34;;;14.90;100.00
28312;BME280;15572;48.810;9.148;2023-06-10T01:59:08;97710.09;;;14.80;100.00
28312;BME280;15572;48.810;9.148;2023-06-10T02:04:05;97713.28;;;14.77;100.00
28312;BME280;15572;48.810;9.148;2023-06-10T02:09:01;97710.53;;;14.65;100.00
28312;BME280;15572;48.810;9.148;2023-06-10T02:13:58;97713.50;;;14.52;100.00
28312;BME280;15572;48.810;9.148;2023-06-10T02:18:55;97713.22;;;14.42;100.00
28312;BME280;15572;48.810;9.148;2023-06-10T02:23:52;97719.56;;;14.36;100.00
28312;BME280;15572;48.810;9.148;2023-06-10T02:28:49;97716.09;;;14.29;100.00
28312;BME280;15572;48.810;9.148;2023-06-10T02:33:46;97722.00;;;14.26;100.00
28312;BME280;15572;48.810;9.148;2023-06-10T02:38:43;97727.06;;;14.22;100.00
28312;BME280;15572;48.810;9.148;2023-06-10T02:43:40;97734.03;;;14.37;100.00
28312;BME280;15572;48.810;9.148;2023-06-10T02:48:41;97735.22;;;14.41;100.00
28312;BME280;15572;48.810;9.148;2023-06-10T02:53:38;97740.28;;;14.37;100.00
28312;BME280;15572;48.810;9.148;2023-06-10T02:58:35;97741.78;;;14.33;100.00
28312;BME280;15572;48.810;9.148;2023-06-10T03:03:32;97736.91;;;14.23;100.00
28312;BME280;15572;48.810;9.148;2023-06-10T03:08:30;97738.75;;;14.11;100.00
28312;BME280;15572;48.810;9.148;2023-06-10T03:13:26;97740.41;;;14.12;100.00
28312;BME280;15572;48.810;9.148;2023-06-10T03:18:26;97750.84;;;14.15;100.00
28312;BME280;15572;48.810;9.148;2023-06-10T03:23:23;97745.72;;;14.07;100.00
28312;BME280;15572;48.810;9.148;2023-06-10T03:28:20;97759.50;;;13.94;100.00
28312;BME280;15572;48.810;9.148;2023-06-10T03:33:17;97770.19;;;13.89;100.00
28312;BME280;15572;48.810;9.148;2023-06-10T03:38:15;97772.03;;;13.77;100.00
28312;BME280;15572;48.810;9.148;2023-06-10T03:43:11;97769.53;;;13.75;100.00
28312;BME280;15572;48.810;9.148;2023-06-10T03:48:08;97779.59;;;13.75;100.00
28312;BME280;15572;48.810;9.148;2023-06-10T03:53:04;97779.88;;;13.85;100.00
28312;BME280;15572;48.810;9.148;2023-06-10T03:58:02;97782.47;;;13.98;100.00
28312;BME280;15572;48.810;9.148;2023-06-10T04:02:58;97784.41;;;14.09;100.00
28312;BME280;15572;48.810;9.148;2023-06-10T04:07:55;97788.25;;;14.20;100.00
28312;BME280;15572;48.810;9.148;2023-06-10T04:12:52;97787.41;;;14.38;100.00
28312;BME280;15572;48.810;9.148;2023-06-10T04:17:50;97784.88;;;14.54;100.00
28312;BME280;15572;48.810;9.148;2023-06-10T04:22:47;97777.81;;;14.65;100.00
28312;BME280;15572;48.810;9.148;2023-06-10T04:27:44;97796.22;;;14.81;100.00
28312;BME280;15572;48.810;9.148;2023-06-10T04:32:40;97793.41;;;14.88;100.00
28312;BME280;15572;48.810;9.148;2023-06-10T04:37:38;97801.25;;;15.07;100.00
28312;BME280;15572;48.810;9.148;2023-06-10T04:42:35;97796.78;;;15.25;100.00
28312;BME280;15572;48.810;9.148;2023-06-10T04:47:31;97797.75;;;15.42;100.00
28312;BME280;15572;48.810;9.148;2023-06-10T04:52:28;97796.72;;;15.54;100.00
28312;BME280;15572;48.810;9.148;2023-06-10T04:57:26;97797.41;;;15.73;100.00
28312;BME280;15572;48.810;9.148;2023-06-10T05:02:23;97802.13;;;15.89;100.00
28312;BME280;15572;48.810;9.148;2023-06-10T05:07:19;97806.13;;;16.10;100.00
28312;BME280;15572;48.810;9.148;2023-06-10T05:12:15;97799.41;;;16.29;100.00
28312;BME280;15572;48.810;9.148;2023-06-10T05:17:13;97800.50;;;16.57;100.00
28312;BME280;15572;48.810;9.148;2023-06-10T05:22:10;97799.59;;;16.79;100.00
28312;BME280;15572;48.810;9.148;2023-06-10T05:27:06;97807.69;;;17.03;100.00
28312;BME280;15572;48.810;9.148;2023-06-10T05:32:04;97814.56;;;17.22;100.00
28312;BME280;15572;48.810;9.148;2023-06-10T05:37:03;97817.72;;;17.47;100.00
28312;BME280;15572;48.810;9.148;2023-06-10T05:42:00;97819.78;;;17.74;100.00
28312;BME280;15572;48.810;9.148;2023-06-10T05:46:57;97803.09;;;17.92;100.00
28312;BME280;15572;48.810;9.148;2023-06-10T05:51:53;97817.06;;;18.12;100.00
28312;BME280;15572;48.810;9.148;2023-06-10T05:56:52;97822.00;;;18.32;99.84
28312;BME280;15572;48.810;9.148;2023-06-10T06:01:49;97821.09;;;18.48;99.28
28312;BME280;15572;48.810;9.148;2023-06-10T06:06:46;97821.41;;;18.73;95.90
28312;BME280;15572;48.810;9.148;2023-06-10T06:11:42;97827.63;;;18.90;95.12
28312;BME280;15572;48.810;9.148;2023-06-10T06:16:40;97828.28;;;19.03;94.02
28312;BME280;15572;48.810;9.148;2023-06-10T06:21:36;97821.56;;;19.15;93.30
28312;BME280;15572;48.810;9.148;2023-06-10T06:26:33;97824.09;;;19.22;93.05
28312;BME280;15572;48.810;9.148;2023-06-10T06:31:30;97828.31;;;19.34;91.61
28312;BME280;15572;48.810;9.148;2023-06-10T06:36:28;97833.91;;;19.45;89.12
28312;BME280;15572;48.810;9.148;2023-06-10T06:41:26;97833.41;;;19.48;89.33
28312;BME280;15572;48.810;9.148;2023-06-10T06:46:22;97830.47;;;19.59;86.84
28312;BME280;15572;48.810;9.148;2023-06-10T06:51:19;97830.56;;;19.69;87.08
28312;BME280;15572;48.810;9.148;2023-06-10T06:56:17;97838.31;;;19.83;85.86
28312;BME280;15572;48.810;9.148;2023-06-10T07:01:14;97836.78;;;19.97;86.14
28312;BME280;15572;48.810;9.148;2023-06-10T07:06:10;97838.75;;;20.01;86.35
28312;BME280;15572;48.810;9.148;2023-06-10T07:11:07;97840.75;;;20.21;84.54
28312;BME280;15572;48.810;9.148;2023-06-10T07:16:05;97839.53;;;20.39;83.59
28312;BME280;15572;48.810;9.148;2023-06-10T07:21:01;97844.47;;;20.42;83.23
28312;BME280;15572;48.810;9.148;2023-06-10T07:25:58;97845.06;;;20.49;82.86
28312;BME280;15572;48.810;9.148;2023-06-10T07:30:54;97839.31;;;20.55;80.71
28312;BME280;15572;48.810;9.148;2023-06-10T07:35:52;97833.63;;;20.77;77.39
28312;BME280;15572;48.810;9.148;2023-06-10T07:40:48;97837.22;;;20.88;76.93
28312;BME280;15572;48.810;9.148;2023-06-10T07:45:45;97834.19;;;20.94;77.27
28312;BME280;15572;48.810;9.148;2023-06-10T07:50:42;97834.25;;;21.05;77.37
28312;BME280;15572;48.810;9.148;2023-06-10T07:55:39;97829.03;;;21.13;77.60
28312;BME280;15572;48.810;9.148;2023-06-10T08:00:36;97834.56;;;21.28;77.87
28312;BME280;15572;48.810;9.148;2023-06-10T08:05:32;97834.31;;;21.40;76.06
28312;BME280;15572;48.810;9.148;2023-06-10T08:10:29;97834.31;;;21.50;75.42
28312;BME280;15572;48.810;9.148;2023-06-10T08:15:27;97826.88;;;21.66;74.28
28312;BME280;15572;48.810;9.148;2023-06-10T08:20:24;97826.03;;;21.75;74.42
28312;BME280;15572;48.810;9.148;2023-06-10T08:25:20;97818.59;;;21.76;73.39
28312;BME280;15572;48.810;9.148;2023-06-10T08:30:17;97824.94;;;21.76;74.13
28312;BME280;15572;48.810;9.148;2023-06-10T08:35:15;97826.03;;;21.75;74.22
28312;BME280;15572;48.810;9.148;2023-06-10T08:40:12;97824.94;;;21.81;74.60
28312;BME280;15572;48.810;9.148;2023-06-10T08:45:12;97827.16;;;21.95;74.57
28312;BME280;15572;48.810;9.148;2023-06-10T08:50:12;97825.19;;;22.10;72.21
28312;BME280;15572;48.810;9.148;2023-06-10T08:55:12;97819.66;;;22.20;71.46
28312;BME280;15572;48.810;9.148;2023-06-10T09:00:11;97812.16;;;22.41;69.23
28312;BME280;15572;48.810;9.148;2023-06-10T09:05:08;97815.72;;;22.47;66.76
28312;BME280;15572;48.810;9.148;2023-06-10T09:10:06;97811.81;;;22.58;68.76
28312;BME280;15572;48.810;9.148;2023-06-10T09:15:05;97809.56;;;22.60;68.78
28312;BME280;15572;48.810;9.148;2023-06-10T09:20:02;97816.44;;;22.67;66.83
28312;BME280;15572;48.810;9.148;2023-06-10T09:25:02;97815.00;;;22.85;66.00
28312;BME280;15572;48.810;9.148;2023-06-10T09:30:00;97801.91;;;23.06;64.67
28312;BME280;15572;48.810;9.148;2023-06-10T09:34:57;97798.78;;;23.18;64.71
28312;BME280;15572;48.810;9.148;2023-06-10T09:40:02;97805.59;;;23.30;64.69
28312;BME280;15572;48.810;9.148;2023-06-10T09:44:59;97802.69;;;23.50;62.54
28312;BME280;15572;48.810;9.148;2023-06-10T09:49:57;97805.91;;;23.63;61.69
28312;BME280;15572;48.810;9.148;2023-06-10T09:54:59;97800.28;;;23.73;61.36
28312;BME280;15572;48.810;9.148;2023-06-10T09:59:56;97797.91;;;23.90;60.55
28312;BME280;15572;48.810;9.148;2023-06-10T10:04:52;97794.16;;;23.81;60.53
28312;BME280;15572;48.810;9.148;2023-06-10T10:09:50;97796.16;;;23.99;60.70
28312;BME280;15572;48.810;9.148;2023-06-10T10:14:47;97795.38;;;24.22;59.07
28312;BME280;15572;48.810;9.148;2023-06-10T10:19:47;97781.78;;;24.26;57.01
28312;BME280;15572;48.810;9.148;2023-06-10T10:24:49;97782.38;;;24.23;55.19
28312;BME280;15572;48.810;9.148;2023-06-10T10:29:51;97778.59;;;24.14;55.68
28312;BME280;15572;48.810;9.148;2023-06-10T10:34:50;97779.28;;;24.29;55.91
28312;BME280;15572;48.810;9.148;2023-06-10T10:39:50;97782.09;;;24.24;53.54
28312;BME280;15572;48.810;9.148;2023-06-10T10:44:48;97786.84;;;24.43;55.51
28312;BME280;15572;48.810;9.148;2023-06-10T10:49:46;97783.09;;;24.57;55.53
28312;BME280;15572;48.810;9.148;2023-06-10T10:54:46;97765.41;;;25.14;53.63
28312;BME280;15572;48.810;9.148;2023-06-10T10:59:45;97764.72;;;25.87;51.87
28312;BME280;15572;48.810;9.148;2023-06-10T11:04:46;97760.78;;;26.34;49.09
28312;BME280;15572;48.810;9.148;2023-06-10T11:09:58;97764.56;;;27.51;47.66
28312;BME280;15572;48.810;9.148;2023-06-10T11:14:55;97762.00;;;28.56;45.88
28312;BME280;15572;48.810;9.148;2023-06-10T11:19:53;97765.34;;;28.27;43.66
28312;BME280;15572;48.810;9.148;2023-06-10T11:24:50;97754.22;;;27.96;44.28
28312;BME280;15572;48.810;9.148;2023-06-10T11:29:57;97750.59;;;28.75;43.69
28312;BME280;15572;48.810;9.148;2023-06-10T11:34:56;97752.94;;;28.90;44.20
28312;BME280;15572;48.810;9.148;2023-06-10T11:39:53;97743.59;;;29.20;38.98
28312;BME280;15572;48.810;9.148;2023-06-10T11:44:50;97740.31;;;29.44;39.33
28312;BME280;15572;48.810;9.148;2023-06-10T11:49:56;97733.28;;;30.57;38.98
28312;BME280;15572;48.810;9.148;2023-06-10T11:54:54;97742.63;;;30.23;37.91
28312;BME280;15572;48.810;9.148;2023-06-10T11:59:51;97739.50;;;29.18;38.96
28312;BME280;15572;48.810;9.148;2023-06-10T12:04:47;97734.00;;;28.61;41.06
28312;BME280;15572;48.810;9.148;2023-06-10T12:09:45;97726.72;;;28.82;41.26
28312;BME280;15572;48.810;9.148;2023-06-10T12:14:51;97724.75;;;29.17;40.86
28312;BME280;15572;48.810;9.148;2023-06-10T12:19:50;97729.44;;;29.94;40.05
28312;BME280;15572;48.810;9.148;2023-06-10T12:24:59;97713.63;;;30.95;37.05
28312;BME280;15572;48.810;9.148;2023-06-10T12:29:57;97713.44;;;31.74;36.48
28312;BME280;15572;48.810;9.148;2023-06-10T12:35:02;97716.38;;;32.35;35.32
28312;BME280;15572;48.810;9.148;2023-06-10T12:40:01;97706.78;;;32.48;35.57
28312;BME280;15572;48.810;9.148;2023-06-10T12:44:58;97721.16;;;30.53;35.44
28312;BME280;15572;48.810;9.148;2023-06-10T12:49:56;97724.44;;;29.45;37.13
28312;BME280;15572;48.810;9.148;2023-06-10T12:54:53;97720.09;;;28.70;39.26
28312;BME280;15572;48.810;9.148;2023-06-10T12:59:51;97720.31;;;28.82;39.39
28312;BME280;15572;48.810;9.148;2023-06-10T13:04:48;97717.38;;;29.21;38.56
28312;BME280;15572;48.810;9.148;2023-06-10T13:09:44;97706.50;;;28.60;41.02
28312;BME280;15572;48.810;9.148;2023-06-10T13:14:44;97703.84;;;27.98;42.39
28312;BME280;15572;48.810;9.148;2023-06-10T13:19:41;97704.75;;;27.54;43.65
28312;BME280;15572;48.810;9.148;2023-06-10T13:24:39;97694.50;;;28.33;42.63
28312;BME280;15572;48.810;9.148;2023-06-10T13:29:35;97689.50;;;29.13;41.86
28312;BME280;15572;48.810;9.148;2023-06-10T13:34:32;97680.78;;;29.57;41.48
28312;BME280;15572;48.810;9.148;2023-06-10T13:39:30;97680.22;;;29.81;40.47
28312;BME280;15572;48.810;9.148;2023-06-10T13:44:26;97670.25;;;29.71;35.61
28312;BME280;15572;48.810;9.148;2023-06-10T13:49:26;97679.38;;;28.74;36.15
28312;BME280;15572;48.810;9.148;2023-06-10T13:54:22;97678.41;;;28.22;38.63
28312;BME280;15572;48.810;9.148;2023-06-10T13:59:20;97671.22;;;27.81;40.48
28312;BME280;15572;48.810;9.148;2023-06-10T14:04:17;97669.44;;;27.54;41.28
28312;BME280;15572;48.810;9.148;2023-06-10T14:09:13;97658.34;;;27.63;41.21
28312;BME280;15572;48.810;9.148;2023-06-10T14:14:11;97656.72;;;28.01;38.38
28312;BME280;15572;48.810;9.148;2023-06-10T14:19:10;97656.81;;;28.27;38.72
28312;BME280;15572;48.810;9.148;2023-06-10T14:24:07;97654.56;;;28.38;38.19
28312;BME280;15572;48.810;9.148;2023-06-10T14:29:03;97657.38;;;28.55;38.37
28312;BME280;15572;48.810;9.148;2023-06-10T14:34:00;97652.22;;;28.14;39.21
28312;BME280;15572;48.810;9.148;2023-06-10T14:38:58;97654.44;;;27.64;40.48
28312;BME280;15572;48.810;9.148;2023-06-10T14:43:54;97656.13;;;27.74;39.68
28312;BME280;15572;48.810;9.148;2023-06-10T14:48:50;97644.88;;;28.18;38.91
28312;BME280;15572;48.810;9.148;2023-06-10T14:53:47;97638.72;;;28.56;38.34
28312;BME280;15572;48.810;9.148;2023-06-10T14:58:45;97645.44;;;28.06;39.01
28312;BME280;15572;48.810;9.148;2023-06-10T15:03:41;97648.06;;;28.12;39.63
28312;BME280;15572;48.810;9.148;2023-06-10T15:08:37;97642.66;;;28.72;38.40
28312;BME280;15572;48.810;9.148;2023-06-10T15:13:34;97628.22;;;29.21;38.56
28312;BME280;15572;48.810;9.148;2023-06-10T15:18:32;97639.38;;;28.96;38.60
28312;BME280;15572;48.810;9.148;2023-06-10T15:23:28;97636.09;;;28.68;39.45
28312;BME280;15572;48.810;9.148;2023-06-10T15:28:25;97636.13;;;28.76;39.18
28312;BME280;15572;48.810;9.148;2023-06-10T15:33:21;97630.84;;;28.66;38.75
28312;BME280;15572;48.810;9.148;2023-06-10T15:38:19;97619.69;;;28.49;38.40
28312;BME280;15572;48.810;9.148;2023-06-10T15:43:16;97627.53;;;28.30;37.40
28312;BME280;15572;48.810;9.148;2023-06-10T15:48:12;97631.31;;;28.25;37.50
28312;BME280;15572;48.810;9.148;2023-06-10T15:53:09;97611.59;;;28.04;38.34
28312;BME280;15572;48.810;9.148;2023-06-10T15:58:06;97620.88;;;28.00;39.63
28312;BME280;15572;48.810;9.148;2023-06-10T16:03:03;97618.91;;;27.92;39.99
28312;BME280;15572;48.810;9.148;2023-06-10T16:07:59;97617.06;;;27.79;38.76
28312;BME280;15572;48.810;9.148;2023-06-10T16:12:56;97614.25;;;27.70;37.81
28312;BME280;15572;48.810;9.148;2023-06-10T16:17:53;97609.16;;;27.63;37.99
28312;BME280;15572;48.810;9.148;2023-06-10T16:22:50;97610.28;;;27.62;39.10
28312;BME280;15572;48.810;9.148;2023-06-10T16:27:47;97609.94;;;27.55;39.86
28312;BME280;15572;48.810;9.148;2023-06-10T16:32:43;97602.75;;;27.54;39.74
28312;BME280;15572;48.810;9.148;2023-06-10T16:37:41;97607.41;;;27.45;39.92
28312;BME280;15572;48.810;9.148;2023-06-10T16:42:37;97611.03;;;27.46;40.28
28312;BME280;15572;48.810;9.148;2023-06-10T16:47:34;97607.06;;;27.47;40.30
28312;BME280;15572;48.810;9.148;2023-06-10T16:52:30;97612.63;;;27.47;39.79
28312;BME280;15572;48.810;9.148;2023-06-10T16:57:28;97617.88;;;27.48;40.13
28312;BME280;15572;48.810;9.148;2023-06-10T17:02:25;97616.56;;;27.46;39.64
28312;BME280;15572;48.810;9.148;2023-06-10T17:07:23;97620.56;;;27.53;39.87
28312;BME280;15572;48.810;9.148;2023-06-10T17:12:19;97621.88;;;27.56;39.89
28312;BME280;15572;48.810;9.148;2023-06-10T17:17:17;97624.69;;;27.64;39.00
28312;BME280;15572;48.810;9.148;2023-06-10T17:22:14;97637.25;;;27.62;39.23
28312;BME280;15572;48.810;9.148;2023-06-10T17:27:11;97633.31;;;27.54;38.93
28312;BME280;15572;48.810;9.148;2023-06-10T17:32:08;97638.22;;;27.57;38.82
28312;BME280;15572;48.810;9.148;2023-06-10T17:37:06;97643.84;;;27.44;39.21
28312;BME280;15572;48.810;9.148;2023-06-10T17:42:03;97637.78;;;27.42;39.73
28312;BME280;15572;48.810;9.148;2023-06-10T17:47:00;97643.09;;;27.52;39.83
28312;BME280;15572;48.810;9.148;2023-06-10T17:51:57;97648.34;;;27.53;40.18
28312;BME280;15572;48.810;9.148;2023-06-10T17:56:55;97655.47;;;27.46;41.15
28312;BME280;15572;48.810;9.148;2023-06-10T18:01:51;97659.72;;;27.21;41.80
28312;BME280;15572;48.810;9.148;2023-06-10T18:06:48;97663.28;;;26.91;42.64
28312;BME280;15572;48.810;9.148;2023-06-10T18:11:44;97671.00;;;26.66;43.41
28312;BME280;15572;48.810;9.148;2023-06-10T18:16:42;97679.81;;;26.46;44.08
28312;BME280;15572;48.810;9.148;2023-06-10T18:21:38;97681.69;;;26.23;44.60
28312;BME280;15572;48.810;9.148;2023-06-10T18:26:35;97677.47;;;26.12;44.98
28312;BME280;15572;48.810;9.148;2023-06-10T18:31:32;97687.84;;;26.07;45.03
28312;BME280;15572;48.810;9.148;2023-06-10T18:36:29;97690.72;;;26.02;45.02
28312;BME280;15572;48.810;9.148;2023-06-10T18:41:26;97694.19;;;25.93;45.14
28312;BME280;15572;48.810;9.148;2023-06-10T18:46:23;97700.25;;;25.82;45.13
28312;BME280;15572;48.810;9.148;2023-06-10T18:51:19;97701.38;;;25.67;45.46
28312;BME280;15572;48.810;9.148;2023-06-10T18:56:17;97715.19;;;25.53;45.37
28312;BME280;15572;48.810;9.148;2023-06-10T19:01:13;97729.50;;;25.42;45.97
28312;BME280;15572;48.810;9.148;2023-06-10T19:06:10;97730.28;;;25.29;46.61
28312;BME280;15572;48.810;9.148;2023-06-10T19:11:06;97735.44;;;25.16;46.93
28312;BME280;15572;48.810;9.148;2023-06-10T19:16:05;97739.28;;;25.02;47.23
28312;BME280;15572;48.810;9.148;2023-06-10T19:21:02;97749.19;;;24.89;47.81
28312;BME280;15572;48.810;9.148;2023-06-10T19:25:59;97749.66;;;24.72;48.49
28312;BME280;15572;48.810;9.148;2023-06-10T19:30:55;97757.44;;;24.70;49.57
28312;BME280;15572;48.810;9.148;2023-06-10T19:35:53;97765.72;;;24.70;49.74
28312;BME280;15572;48.810;9.148;2023-06-10T19:40:50;97762.22;;;24.65;50.32
28312;BME280;15572;48.810;9.148;2023-06-10T19:45:47;97775.78;;;24.43;50.48
28312;BME280;15572;48.810;9.148;2023-06-10T19:50:43;97780.38;;;24.28;50.51
28312;BME280;15572;48.810;9.148;2023-06-10T19:55:41;97787.41;;;24.16;51.08
28312;BME280;15572;48.810;9.148;2023-06-10T20:00:37;97782.81;;;24.06;51.07
28312;BME280;15572;48.810;9.148;2023-06-10T20:05:34;97794.38;;;24.13;52.59
28312;BME280;15572;48.810;9.148;2023-06-10T20:10:32;97794.94;;;24.10;52.82
28312;BME280;15572;48.810;9.148;2023-06-10T20:15:30;97800.28;;;24.02;53.36
28312;BME280;15572;48.810;9.148;2023-06-10T20:20:27;97809.97;;;23.99;54.18
28312;BME280;15572;48.810;9.148;2023-06-10T20:25:23;97817.69;;;23.73;54.27
28312;BME280;15572;48.810;9.148;2023-06-10T20:30:20;97831.63;;;23.58;54.94
28312;BME280;15572;48.810;9.148;2023-06-10T20:35:17;97831.34;;;23.60;56.33
28312;BME280;15572;48.810;9.148;2023-06-10T20:40:14;97829.19;;;23.52;56.13
28312;BME280;15572;48.810;9.148;2023-06-10T20:45:11;97842.38;;;23.65;56.56
28312;BME280;15572;48.810;9.148;2023-06-10T20:50:08;97845.09;;;23.70;56.66
28312;BME280;15572;48.810;9.148;2023-06-10T20:55:08;97836.66;;;23.51;56.68
28312;BME280;15572;48.810;9.148;2023-06-10T21:00:05;97852.72;;;23.49;58.31
28312;BME280;15572;48.810;9.148;2023-06-10T21:05:03;97848.56;;;23.46;58.59
28312;BME280;15572;48.810;9.148;2023-06-10T21:10:00;97848.97;;;23.25;58.93
28312;BME280;15572;48.810;9.148;2023-06-10T21:14:58;97852.41;;;23.06;59.34
28312;BME280;15572;48.810;9.148;2023-06-10T21:19:54;97854.69;;;22.94;59.76
28312;BME280;15572;48.810;9.148;2023-06-10T21:24:51;97859.69;;;22.87;59.84
28312;BME280;15572;48.810;9.148;2023-06-10T21:29:47;97864.41;;;22.77;60.56
28312;BME280;15572;48.810;9.148;2023-06-10T21:34:45;97859.19;;;22.70;60.86
28312;BME280;15572;48.810;9.148;2023-06-10T21:39:42;97861.44;;;22.63;61.24
28312;BME280;15572;48.810;9.148;2023-06-10T21:44:38;97871.66;;;22.57;61.44
28312;BME280;15572;48.810;9.148;2023-06-10T21:49:35;97867.25;;;22.51;61.85
28312;BME280;15572;48.810;9.148;2023-06-10T21:54:32;97870.88;;;22.42;62.71
28312;BME280;15572;48.810;9.148;2023-06-10T21:59:29;97871.72;;;22.37;62.89
28312;BME280;15572;48.810;9.148;2023-06-10T22:04:26;97868.97;;;22.32;63.35
28312;BME280;15572;48.810;9.148;2023-06-10T22:09:22;97878.06;;;22.22;64.17
28312;BME280;15572;48.810;9.148;2023-06-10T22:14:20;97883.91;;;22.16;64.79
28312;BME280;15572;48.810;9.148;2023-06-10T22:19:17;97883.91;;;22.06;65.28
28312;BME280;15572;48.810;9.148;2023-06-10T22:24:14;97888.28;;;21.92;65.98
28312;BME280;15572;48.810;9.148;2023-06-10T22:29:10;97889.13;;;21.82;66.57
28312;BME280;15572;48.810;9.148;2023-06-10T22:34:08;97875.09;;;21.73;67.07
28312;BME280;15572;48.810;9.148;2023-06-10T22:39:04;97882.22;;;21.64;67.67
28312;BME280;15572;48.810;9.148;2023-06-10T22:44:07;97879.78;;;21.58;68.00
28312;BME280;15572;48.810;9.148;2023-06-10T22:49:03;97882.53;;;21.53;68.46
28312;BME280;15572;48.810;9.148;2023-06-10T22:54:02;97884.13;;;21.43;69.26
28312;BME280;15572;48.810;9.148;2023-06-10T22:58:58;97885.22;;;21.32;69.84
28312;BME280;15572;48.810;9.148;2023-06-10T23:03:57;97884.94;;;21.24;70.72
28312;BME280;15572;48.810;9.148;2023-06-10T23:08:54;97882.13;;;21.14;71.44
28312;BME280;15572;48.810;9.148;2023-06-10T23:13:51;97883.47;;;21.06;71.99
28312;BME280;15572;48.810;9.148;2023-06-10T23:18:49;97892.56;;;21.01;72.43
28312;BME280;15572;48.810;9.148;2023-06-10T23:23:47;97898.63;;;20.98;73.13
28312;BME280;15572;48.810;9.148;2023-06-10T23:28:46;97899.69;;;20.92;73.58
28312;BME280;15572;48.810;9.148;2023-06-10T23:33:44;97903.50;;;20.86;74.19
28312;BME280;15572;48.810;9.148;2023-06-10T23:38:40;97903.50;;;20.81;74.77
28312;BME280;15572;48.810;9.148;2023-06-10T23:43:37;97910.34;;;20.79;75.48
28312;BME280;15572;48.810;9.148;2023-06-10T23:48:33;97911.47;;;20.78;76.06
28312;BME280;15572;48.810;9.148;2023-06-10T23:53:31;97911.19;;;20.79;76.42
28312;BME280;15572;48.810;9.148;2023-06-10T23:58:28;97908.72;;;20.78;76.72
